sensor_id;sensor_type;location;lat;lon;timestamp;P1;durP1;ratioP1;P2;durP2;ratioP2
6823;SDS011;58633;49.470;11.004;2023-12-20T00:01:40;4.60;;;3.27;;
6823;SDS011;58633;49.470;11.004;2023-12-20T00:04:06;6.53;;;3.57;;
6823;SDS011;58633;49.470;11.004;2023-12-20T00:06:31;6.83;;;3.40;;
6823;SDS011;58633;49.470;11.004;2023-12-20T00:08:57;7.53;;;3.73;;
6823;SDS011;58633;49.470;11.004;2023-12-20T00:11:23;5.53;;;3.27;;
6823;SDS011;58633;49.470;11.004;2023-12-20T00:13:49;7.20;;;3.37;;
6823;SDS011;58633;49.470;11.004;2023-12-20T00:16:14;7.53;;;2.87;;
6823;SDS011;58633;49.470;11.004;2023-12-20T00:18:40;4.90;;;3.37;;
6823;SDS011;58633;49.470;11.004;2023-12-20T00:21:05;4.87;;;3.23;;
6823;SDS011;58633;49.470;11.004;2023-12-20T00:23:31;5.07;;;3.60;;
6823;SDS011;58633;49.470;11.004;2023-12-20T00:25:56;4.73;;;3.13;;
6823;SDS011;58633;49.470;11.004;2023-12-20T00:28:22;6.90;;;3.60;;
6823;SDS011;58633;49.470;11.004;2023-12-20T00:30:47;4.33;;;3.10;;
6823;SDS011;58633;49.470;11.004;2023-12-20T00:33:13;4.20;;;3.67;;
6823;SDS011;58633;49.470;11.004;2023-12-20T00:35:39;4.43;;;2.90;;
6823;SDS011;58633;49.470;11.004;2023-12-20T00:38:04;5.03;;;3.03;;
6823;SDS011;58633;49.470;11.004;2023-12-20T00:40:31;5.27;;;3.30;;
6823;SDS011;58633;49.470;11.004;2023-12-20T00:42:58;5.50;;;3.50;;
6823;SDS011;58633;49.470;11.004;2023-12-20T00:45:23;5.40;;;3.40;;
6823;SDS011;58633;49.470;11.004;2023-12-20T00:47:49;6.90;;;3.47;;
6823;SDS011;58633;49.470;11.004;2023-12-20T00:50:14;8.83;;;3.20;;
6823;SDS011;58633;49.470;11.004;2023-12-20T00:52:40;4.37;;;3.30;;
6823;SDS011;58633;49.470;11.004;2023-12-20T00:55:05;5.40;;;3.53;;
6823;SDS011;58633;49.470;11.004;2023-12-20T00:57:31;7.63;;;3.00;;
6823;SDS011;58633;49.470;11.004;2023-12-20T00:59:57;5.07;;;3.13;;
6823;SDS011;58633;49.470;11.004;2023-12-20T01:02:22;8.23;;;3.60;;
6823;SDS011;58633;49.470;11.004;2023-12-20T01:04:48;6.70;;;3.30;;
6823;SDS011;58633;49.470;11.004;2023-12-20T01:07:13;5.80;;;2.50;;
6823;SDS011;58633;49.470;11.004;2023-12-20T01:09:39;3.40;;;2.53;;
6823;SDS011;58633;49.470;11.004;2023-12-20T01:12:04;3.23;;;2.33;;
6823;SDS011;58633;49.470;11.004;2023-12-20T01:14:30;3.67;;;2.30;;
6823;SDS011;58633;49.470;11.004;2023-12-20T01:16:55;2.53;;;2.10;;
6823;SDS011;58633;49.470;11.004;2023-12-20T01:19:21;2.47;;;1.87;;
6823;SDS011;58633;49.470;11.004;2023-12-20T01:21:47;4.73;;;1.90;;
6823;SDS011;58633;49.470;11.004;2023-12-20T01:24:13;2.23;;;1.83;;
6823;SDS011;58633;49.470;11.004;2023-12-20T01:26:38;2.83;;;1.90;;
6823;SDS011;58633;49.470;11.004;2023-12-20T01:29:04;2.83;;;1.80;;
6823;SDS011;58633;49.470;11.004;2023-12-20T01:31:29;3.13;;;1.43;;
6823;SDS011;58633;49.470;11.004;2023-12-20T01:33:55;2.43;;;1.40;;
6823;SDS011;58633;49.470;11.004;2023-12-20T01:36:21;1.50;;;1.40;;
6823;SDS011;58633;49.470;11.004;2023-12-20T01:38:46;2.03;;;1.60;;
6823;SDS011;58633;49.470;11.004;2023-12-20T01:41:12;2.10;;;1.67;;
6823;SDS011;58633;49.470;11.004;2023-12-20T01:43:37;2.30;;;1.60;;
6823;SDS011;58633;49.470;11.004;2023-12-20T01:46:03;2.17;;;1.60;;
6823;SDS011;58633;49.470;11.004;2023-12-20T01:48:29;1.80;;;1.70;;
6823;SDS011;58633;49.470;11.004;2023-12-20T01:50:57;1.47;;;1.37;;
6823;SDS011;58633;49.470;11.004;2023-12-20T01:53:24;1.70;;;1.60;;
6823;SDS011;58633;49.470;11.004;2023-12-20T01:55:52;1.57;;;1.40;;
6823;SDS011;58633;49.470;11.004;2023-12-20T01:58:20;1.83;;;1.40;;
6823;SDS011;58633;49.470;11.004;2023-12-20T02:00:47;1.93;;;1.40;;
6823;SDS011;58633;49.470;11.004;2023-12-20T02:03:13;1.37;;;1.27;;
6823;SDS011;58633;49.470;11.004;2023-12-20T02:05:38;1.60;;;1.30;;
6823;SDS011;58633;49.470;11.004;2023-12-20T02:08:05;1.30;;;1.20;;
6823;SDS011;58633;49.470;11.004;2023-12-20T02:10:31;1.37;;;1.27;;
6823;SDS011;58633;49.470;11.004;2023-12-20T02:12:56;2.10;;;1.17;;
6823;SDS011;58633;49.470;11.004;2023-12-20T02:15:22;1.07;;;1.07;;
6823;SDS011;58633;49.470;11.004;2023-12-20T02:17:48;1.13;;;1.03;;
6823;SDS011;58633;49.470;11.004;2023-12-20T02:20:14;1.00;;;1.00;;
6823;SDS011;58633;49.470;11.004;2023-12-20T02:22:40;1.10;;;1.00;;
6823;SDS011;58633;49.470;11.004;2023-12-20T02:25:05;1.23;;;1.13;;
6823;SDS011;58633;49.470;11.004;2023-12-20T02:27:31;1.20;;;1.13;;
6823;SDS011;58633;49.470;11.004;2023-12-20T02:29:57;0.80;;;0.80;;
6823;SDS011;58633;49.470;11.004;2023-12-20T02:32:23;1.97;;;1.03;;
6823;SDS011;58633;49.470;11.004;2023-12-20T02:34:52;1.00;;;1.00;;
6823;SDS011;58633;49.470;11.004;2023-12-20T02:37:18;0.90;;;0.90;;
6823;SDS011;58633;49.470;11.004;2023-12-20T02:39:43;1.20;;;1.10;;
6823;SDS011;58633;49.470;11.004;2023-12-20T02:42:09;1.27;;;1.17;;
6823;SDS011;58633;49.470;11.004;2023-12-20T02:44:34;0.87;;;0.87;;
6823;SDS011;58633;49.470;11.004;2023-12-20T02:47:01;0.90;;;0.90;;
6823;SDS011;58633;49.470;11.004;2023-12-20T02:49:27;1.17;;;1.00;;
6823;SDS011;58633;49.470;11.004;2023-12-20T02:51:52;0.83;;;0.80;;
6823;SDS011;58633;49.470;11.004;2023-12-20T02:54:18;0.80;;;0.80;;
6823;SDS011;58633;49.470;11.004;2023-12-20T02:56:43;0.90;;;0.90;;
6823;SDS011;58633;49.470;11.004;2023-12-20T02:59:09;0.80;;;0.80;;
6823;SDS011;58633;49.470;11.004;2023-12-20T03:01:34;0.90;;;0.90;;
6823;SDS011;58633;49.470;11.004;2023-12-20T03:04:00;0.90;;;0.90;;
6823;SDS011;58633;49.470;11.004;2023-12-20T03:06:26;0.93;;;0.93;;
6823;SDS011;58633;49.470;11.004;2023-12-20T03:08:52;1.00;;;1.00;;
6823;SDS011;58633;49.470;11.004;2023-12-20T03:11:17;0.90;;;0.90;;
6823;SDS011;58633;49.470;11.004;2023-12-20T03:13:43;0.90;;;0.90;;
6823;SDS011;58633;49.470;11.004;2023-12-20T03:16:09;0.90;;;0.90;;
6823;SDS011;58633;49.470;11.004;2023-12-20T03:18:38;0.80;;;0.80;;
6823;SDS011;58633;49.470;11.004;2023-12-20T03:21:04;0.80;;;0.80;;
6823;SDS011;58633;49.470;11.004;2023-12-20T03:23:30;0.60;;;0.60;;
6823;SDS011;58633;49.470;11.004;2023-12-20T03:25:57;0.70;;;0.70;;
6823;SDS011;58633;49.470;11.004;2023-12-20T03:28:23;0.70;;;0.70;;
6823;SDS011;58633;49.470;11.004;2023-12-20T03:30:49;0.70;;;0.70;;
6823;SDS011;58633;49.470;11.004;2023-12-20T03:33:14;0.70;;;0.70;;
6823;SDS011;58633;49.470;11.004;2023-12-20T03:35:40;0.70;;;0.70;;
6823;SDS011;58633;49.470;11.004;2023-12-20T03:38:06;0.70;;;0.70;;
6823;SDS011;58633;49.470;11.004;2023-12-20T03:40:31;0.90;;;0.90;;
6823;SDS011;58633;49.470;11.004;2023-12-20T03:42:57;0.70;;;0.70;;
6823;SDS011;58633;49.470;11.004;2023-12-20T03:45:22;0.70;;;0.70;;
6823;SDS011;58633;49.470;11.004;2023-12-20T03:47:48;0.80;;;0.80;;
6823;SDS011;58633;49.470;11.004;2023-12-20T03:50:14;0.70;;;0.70;;
6823;SDS011;58633;49.470;11.004;2023-12-20T03:52:40;0.70;;;0.70;;
6823;SDS011;58633;49.470;11.004;2023-12-20T03:55:05;0.93;;;0.93;;
6823;SDS011;58633;49.470;11.004;2023-12-20T03:57:31;0.80;;;0.80;;
6823;SDS011;58633;49.470;11.004;2023-12-20T03:59:56;2.17;;;0.90;;
6823;SDS011;58633;49.470;11.004;2023-12-20T04:02:22;0.80;;;0.80;;
6823;SDS011;58633;49.470;11.004;2023-12-20T04:04:47;0.90;;;0.90;;
6823;SDS011;58633;49.470;11.004;2023-12-20T04:07:13;1.30;;;0.90;;
6823;SDS011;58633;49.470;11.004;2023-12-20T04:09:40;0.80;;;0.80;;
6823;SDS011;58633;49.470;11.004;2023-12-20T04:12:06;0.90;;;0.90;;
6823;SDS011;58633;49.470;11.004;2023-12-20T04:14:31;0.90;;;0.90;;
6823;SDS011;58633;49.470;11.004;2023-12-20T04:16:57;1.00;;;1.00;;
6823;SDS011;58633;49.470;11.004;2023-12-20T04:19:22;1.00;;;1.00;;
6823;SDS011;58633;49.470;11.004;2023-12-20T04:21:48;1.00;;;1.00;;
6823;SDS011;58633;49.470;11.004;2023-12-20T04:24:13;1.40;;;1.00;;
6823;SDS011;58633;49.470;11.004;2023-12-20T04:26:39;1.00;;;1.00;;
6823;SDS011;58633;49.470;11.004;2023-12-20T04:29:04;1.30;;;0.80;;
6823;SDS011;58633;49.470;11.004;2023-12-20T04:31:30;1.47;;;1.10;;
6823;SDS011;58633;49.470;11.004;2023-12-20T04:33:55;0.90;;;0.90;;
6823;SDS011;58633;49.470;11.004;2023-12-20T04:36:21;1.17;;;1.10;;
6823;SDS011;58633;49.470;11.004;2023-12-20T04:38:46;1.00;;;1.00;;
6823;SDS011;58633;49.470;11.004;2023-12-20T04:41:12;1.00;;;1.00;;
6823;SDS011;58633;49.470;11.004;2023-12-20T04:43:40;0.97;;;0.97;;
6823;SDS011;58633;49.470;11.004;2023-12-20T04:46:06;1.00;;;1.00;;
6823;SDS011;58633;49.470;11.004;2023-12-20T04:48:32;1.00;;;1.00;;
6823;SDS011;58633;49.470;11.004;2023-12-20T04:50:57;1.10;;;1.10;;
6823;SDS011;58633;49.470;11.004;2023-12-20T04:53:23;1.30;;;1.20;;
6823;SDS011;58633;49.470;11.004;2023-12-20T04:55:48;1.00;;;1.00;;
6823;SDS011;58633;49.470;11.004;2023-12-20T04:58:13;0.90;;;0.90;;
6823;SDS011;58633;49.470;11.004;2023-12-20T05:00:39;0.93;;;0.93;;
6823;SDS011;58633;49.470;11.004;2023-12-20T05:03:05;1.10;;;1.00;;
6823;SDS011;58633;49.470;11.004;2023-12-20T05:05:30;1.23;;;1.20;;
6823;SDS011;58633;49.470;11.004;2023-12-20T05:07:56;1.20;;;1.20;;
6823;SDS011;58633;49.470;11.004;2023-12-20T05:10:22;0.90;;;0.90;;
6823;SDS011;58633;49.470;11.004;2023-12-20T05:12:47;1.00;;;1.00;;
6823;SDS011;58633;49.470;11.004;2023-12-20T05:15:13;1.10;;;1.07;;
6823;SDS011;58633;49.470;11.004;2023-12-20T05:17:38;1.00;;;1.00;;
6823;SDS011;58633;49.470;11.004;2023-12-20T05:20:04;1.00;;;1.00;;
6823;SDS011;58633;49.470;11.004;2023-12-20T05:22:30;1.10;;;1.10;;
6823;SDS011;58633;49.470;11.004;2023-12-20T05:24:55;1.30;;;1.10;;
6823;SDS011;58633;49.470;11.004;2023-12-20T05:27:21;1.07;;;1.07;;
6823;SDS011;58633;49.470;11.004;2023-12-20T05:29:47;1.13;;;1.13;;
6823;SDS011;58633;49.470;11.004;2023-12-20T05:32:12;0.97;;;0.97;;
6823;SDS011;58633;49.470;11.004;2023-12-20T05:34:38;1.30;;;1.20;;
6823;SDS011;58633;49.470;11.004;2023-12-20T05:37:03;1.20;;;1.10;;
6823;SDS011;58633;49.470;11.004;2023-12-20T05:39:29;1.30;;;1.20;;
6823;SDS011;58633;49.470;11.004;2023-12-20T05:41:55;0.87;;;0.87;;
6823;SDS011;58633;49.470;11.004;2023-12-20T05:44:21;1.00;;;1.00;;
6823;SDS011;58633;49.470;11.004;2023-12-20T05:46:47;1.17;;;1.17;;
6823;SDS011;58633;49.470;11.004;2023-12-20T05:49:12;0.97;;;0.97;;
6823;SDS011;58633;49.470;11.004;2023-12-20T05:51:38;0.90;;;0.90;;
6823;SDS011;58633;49.470;11.004;2023-12-20T05:54:04;0.97;;;0.97;;
6823;SDS011;58633;49.470;11.004;2023-12-20T05:56:29;0.90;;;0.90;;
6823;SDS011;58633;49.470;11.004;2023-12-20T05:58:55;1.00;;;1.00;;
6823;SDS011;58633;49.470;11.004;2023-12-20T06:01:20;1.17;;;1.17;;
6823;SDS011;58633;49.470;11.004;2023-12-20T06:03:46;1.63;;;1.20;;
6823;SDS011;58633;49.470;11.004;2023-12-20T06:06:11;1.03;;;1.03;;
6823;SDS011;58633;49.470;11.004;2023-12-20T06:08:40;1.10;;;1.10;;
6823;SDS011;58633;49.470;11.004;2023-12-20T06:11:06;1.20;;;1.20;;
6823;SDS011;58633;49.470;11.004;2023-12-20T06:13:31;1.20;;;1.20;;
6823;SDS011;58633;49.470;11.004;2023-12-20T06:15:57;1.00;;;1.00;;
6823;SDS011;58633;49.470;11.004;2023-12-20T06:18:23;1.20;;;1.20;;
6823;SDS011;58633;49.470;11.004;2023-12-20T06:20:49;1.47;;;1.37;;
6823;SDS011;58633;49.470;11.004;2023-12-20T06:23:15;1.80;;;1.70;;
6823;SDS011;58633;49.470;11.004;2023-12-20T06:25:40;1.90;;;1.70;;
6823;SDS011;58633;49.470;11.004;2023-12-20T06:28:06;3.70;;;2.50;;
6823;SDS011;58633;49.470;11.004;2023-12-20T06:30:31;4.63;;;3.30;;
6823;SDS011;58633;49.470;11.004;2023-12-20T06:32:58;3.50;;;2.37;;
6823;SDS011;58633;49.470;11.004;2023-12-20T06:35:23;1.53;;;1.50;;
6823;SDS011;58633;49.470;11.004;2023-12-20T06:37:49;1.20;;;1.20;;
6823;SDS011;58633;49.470;11.004;2023-12-20T06:40:15;1.73;;;1.50;;
6823;SDS011;58633;49.470;11.004;2023-12-20T06:42:41;1.57;;;1.47;;
6823;SDS011;58633;49.470;11.004;2023-12-20T06:45:07;1.60;;;1.50;;
6823;SDS011;58633;49.470;11.004;2023-12-20T06:47:33;1.70;;;1.60;;
6823;SDS011;58633;49.470;11.004;2023-12-20T06:49:58;2.30;;;2.10;;
6823;SDS011;58633;49.470;11.004;2023-12-20T06:52:24;2.73;;;2.50;;
6823;SDS011;58633;49.470;11.004;2023-12-20T06:54:49;3.97;;;2.90;;
6823;SDS011;58633;49.470;11.004;2023-12-20T06:57:15;4.17;;;2.40;;
6823;SDS011;58633;49.470;11.004;2023-12-20T06:59:41;2.90;;;2.20;;
6823;SDS011;58633;49.470;11.004;2023-12-20T07:02:06;2.90;;;2.20;;
6823;SDS011;58633;49.470;11.004;2023-12-20T07:04:33;2.80;;;2.10;;
6823;SDS011;58633;49.470;11.004;2023-12-20T07:06:59;2.20;;;2.00;;
6823;SDS011;58633;49.470;11.004;2023-12-20T07:09:28;2.20;;;2.00;;
6823;SDS011;58633;49.470;11.004;2023-12-20T07:11:53;2.50;;;2.30;;
6823;SDS011;58633;49.470;11.004;2023-12-20T07:14:19;3.53;;;2.80;;
6823;SDS011;58633;49.470;11.004;2023-12-20T07:16:44;2.00;;;1.90;;
6823;SDS011;58633;49.470;11.004;2023-12-20T07:19:10;2.00;;;1.90;;
6823;SDS011;58633;49.470;11.004;2023-12-20T07:21:35;2.67;;;2.10;;
6823;SDS011;58633;49.470;11.004;2023-12-20T07:24:01;2.40;;;2.20;;
6823;SDS011;58633;49.470;11.004;2023-12-20T07:26:26;2.57;;;2.37;;
6823;SDS011;58633;49.470;11.004;2023-12-20T07:28:52;2.60;;;2.03;;
6823;SDS011;58633;49.470;11.004;2023-12-20T07:31:18;3.80;;;2.30;;
6823;SDS011;58633;49.470;11.004;2023-12-20T07:33:43;2.40;;;2.20;;
6823;SDS011;58633;49.470;11.004;2023-12-20T07:36:09;4.00;;;2.57;;
6823;SDS011;58633;49.470;11.004;2023-12-20T07:38:34;3.80;;;2.60;;
6823;SDS011;58633;49.470;11.004;2023-12-20T07:41:00;2.83;;;2.53;;
6823;SDS011;58633;49.470;11.004;2023-12-20T07:43:26;4.17;;;3.03;;
6823;SDS011;58633;49.470;11.004;2023-12-20T07:45:51;3.73;;;3.00;;
6823;SDS011;58633;49.470;11.004;2023-12-20T07:48:17;2.70;;;2.50;;
6823;SDS011;58633;49.470;11.004;2023-12-20T07:50:42;2.80;;;2.50;;
6823;SDS011;58633;49.470;11.004;2023-12-20T07:53:08;3.27;;;2.97;;
6823;SDS011;58633;49.470;11.004;2023-12-20T07:55:33;2.50;;;2.30;;
6823;SDS011;58633;49.470;11.004;2023-12-20T07:57:59;3.40;;;3.00;;
6823;SDS011;58633;49.470;11.004;2023-12-20T08:00:25;5.57;;;2.70;;
6823;SDS011;58633;49.470;11.004;2023-12-20T08:02:51;3.53;;;3.07;;
6823;SDS011;58633;49.470;11.004;2023-12-20T08:05:16;3.87;;;2.50;;
6823;SDS011;58633;49.470;11.004;2023-12-20T08:07:42;6.33;;;3.67;;
6823;SDS011;58633;49.470;11.004;2023-12-20T08:10:07;3.30;;;3.00;;
6823;SDS011;58633;49.470;11.004;2023-12-20T08:12:33;4.10;;;2.80;;
6823;SDS011;58633;49.470;11.004;2023-12-20T08:14:59;4.33;;;3.30;;
6823;SDS011;58633;49.470;11.004;2023-12-20T08:17:25;3.90;;;2.90;;
6823;SDS011;58633;49.470;11.004;2023-12-20T08:19:50;3.13;;;2.83;;
6823;SDS011;58633;49.470;11.004;2023-12-20T08:22:16;7.67;;;3.93;;
6823;SDS011;58633;49.470;11.004;2023-12-20T08:24:41;2.77;;;2.50;;
6823;SDS011;58633;49.470;11.004;2023-12-20T08:27:07;5.37;;;3.50;;
6823;SDS011;58633;49.470;11.004;2023-12-20T08:29:34;3.00;;;2.80;;
6823;SDS011;58633;49.470;11.004;2023-12-20T08:32:00;3.33;;;2.47;;
6823;SDS011;58633;49.470;11.004;2023-12-20T08:34:25;2.93;;;2.40;;
6823;SDS011;58633;49.470;11.004;2023-12-20T08:36:51;2.43;;;2.23;;
6823;SDS011;58633;49.470;11.004;2023-12-20T08:39:16;2.10;;;2.00;;
6823;SDS011;58633;49.470;11.004;2023-12-20T08:41:42;2.43;;;2.10;;
6823;SDS011;58633;49.470;11.004;2023-12-20T08:44:08;2.47;;;2.00;;
6823;SDS011;58633;49.470;11.004;2023-12-20T08:46:34;2.80;;;2.20;;
6823;SDS011;58633;49.470;11.004;2023-12-20T08:49:00;2.00;;;1.80;;
6823;SDS011;58633;49.470;11.004;2023-12-20T08:51:26;3.00;;;2.00;;
6823;SDS011;58633;49.470;11.004;2023-12-20T08:53:52;1.90;;;1.80;;
6823;SDS011;58633;49.470;11.004;2023-12-20T08:56:18;2.07;;;1.87;;
6823;SDS011;58633;49.470;11.004;2023-12-20T08:58:44;4.13;;;1.93;;
6823;SDS011;58633;49.470;11.004;2023-12-20T09:01:10;2.27;;;2.07;;
6823;SDS011;58633;49.470;11.004;2023-12-20T09:03:36;2.10;;;1.90;;
6823;SDS011;58633;49.470;11.004;2023-12-20T09:06:01;3.47;;;2.20;;
6823;SDS011;58633;49.470;11.004;2023-12-20T09:08:27;4.57;;;1.90;;
6823;SDS011;58633;49.470;11.004;2023-12-20T09:10:52;4.53;;;2.20;;
6823;SDS011;58633;49.470;11.004;2023-12-20T09:13:18;2.50;;;2.30;;
6823;SDS011;58633;49.470;11.004;2023-12-20T09:15:43;3.27;;;2.07;;
6823;SDS011;58633;49.470;11.004;2023-12-20T09:18:09;2.50;;;2.20;;
6823;SDS011;58633;49.470;11.004;2023-12-20T09:20:35;5.23;;;2.20;;
6823;SDS011;58633;49.470;11.004;2023-12-20T09:23:00;3.67;;;2.17;;
6823;SDS011;58633;49.470;11.004;2023-12-20T09:25:26;4.03;;;2.00;;
6823;SDS011;58633;49.470;11.004;2023-12-20T09:27:52;2.60;;;2.07;;
6823;SDS011;58633;49.470;11.004;2023-12-20T09:30:18;2.30;;;2.10;;
6823;SDS011;58633;49.470;11.004;2023-12-20T09:32:43;3.67;;;1.80;;
6823;SDS011;58633;49.470;11.004;2023-12-20T09:35:10;3.10;;;1.80;;
6823;SDS011;58633;49.470;11.004;2023-12-20T09:37:35;1.80;;;1.70;;
6823;SDS011;58633;49.470;11.004;2023-12-20T09:40:01;2.57;;;1.87;;
6823;SDS011;58633;49.470;11.004;2023-12-20T09:42:29;2.77;;;1.70;;
6823;SDS011;58633;49.470;11.004;2023-12-20T09:44:58;3.00;;;1.63;;
6823;SDS011;58633;49.470;11.004;2023-12-20T09:47:28;2.70;;;1.47;;
6823;SDS011;58633;49.470;11.004;2023-12-20T09:49:54;3.13;;;1.70;;
6823;SDS011;58633;49.470;11.004;2023-12-20T09:52:20;1.43;;;1.30;;
6823;SDS011;58633;49.470;11.004;2023-12-20T09:54:48;2.50;;;1.30;;
6823;SDS011;58633;49.470;11.004;2023-12-20T09:57:17;1.80;;;1.60;;
6823;SDS011;58633;49.470;11.004;2023-12-20T09:59:43;1.90;;;1.27;;
6823;SDS011;58633;49.470;11.004;2023-12-20T10:02:09;3.03;;;1.50;;
6823;SDS011;58633;49.470;11.004;2023-12-20T10:04:38;5.23;;;1.43;;
6823;SDS011;58633;49.470;11.004;2023-12-20T10:07:10;1.47;;;1.20;;
6823;SDS011;58633;49.470;11.004;2023-12-20T10:09:36;3.77;;;1.50;;
6823;SDS011;58633;49.470;11.004;2023-12-20T10:12:02;1.80;;;1.40;;
6823;SDS011;58633;49.470;11.004;2023-12-20T10:14:27;4.03;;;1.47;;
6823;SDS011;58633;49.470;11.004;2023-12-20T10:16:53;2.40;;;1.43;;
6823;SDS011;58633;49.470;11.004;2023-12-20T10:19:20;3.70;;;1.30;;
6823;SDS011;58633;49.470;11.004;2023-12-20T10:21:46;2.87;;;1.70;;
6823;SDS011;58633;49.470;11.004;2023-12-20T10:24:16;2.70;;;1.50;;
6823;SDS011;58633;49.470;11.004;2023-12-20T10:26:42;2.33;;;1.40;;
6823;SDS011;58633;49.470;11.004;2023-12-20T10:29:08;2.37;;;1.50;;
6823;SDS011;58633;49.470;11.004;2023-12-20T10:31:34;4.47;;;1.30;;
6823;SDS011;58633;49.470;11.004;2023-12-20T10:34:01;3.07;;;1.33;;
6823;SDS011;58633;49.470;11.004;2023-12-20T10:36:31;3.07;;;1.57;;
6823;SDS011;58633;49.470;11.004;2023-12-20T10:38:57;3.47;;;1.70;;
6823;SDS011;58633;49.470;11.004;2023-12-20T10:41:28;7.30;;;1.50;;
6823;SDS011;58633;49.470;11.004;2023-12-20T10:43:56;3.40;;;1.23;;
6823;SDS011;58633;49.470;11.004;2023-12-20T10:46:28;4.07;;;1.57;;
6823;SDS011;58633;49.470;11.004;2023-12-20T10:48:55;4.17;;;1.70;;
6823;SDS011;58633;49.470;11.004;2023-12-20T10:51:21;5.63;;;1.40;;
6823;SDS011;58633;49.470;11.004;2023-12-20T10:53:49;2.47;;;1.30;;
6823;SDS011;58633;49.470;11.004;2023-12-20T10:56:16;3.40;;;1.60;;
6823;SDS011;58633;49.470;11.004;2023-12-20T10:58:48;2.73;;;1.40;;
6823;SDS011;58633;49.470;11.004;2023-12-20T11:01:15;1.73;;;1.40;;
6823;SDS011;58633;49.470;11.004;2023-12-20T11:03:43;4.07;;;2.03;;
6823;SDS011;58633;49.470;11.004;2023-12-20T11:06:22;4.10;;;1.43;;
6823;SDS011;58633;49.470;11.004;2023-12-20T11:08:52;3.43;;;1.60;;
6823;SDS011;58633;49.470;11.004;2023-12-20T11:11:35;3.63;;;1.70;;
6823;SDS011;58633;49.470;11.004;2023-12-20T11:14:20;5.97;;;3.10;;
6823;SDS011;58633;49.470;11.004;2023-12-20T11:16:50;2.17;;;1.43;;
6823;SDS011;58633;49.470;11.004;2023-12-20T11:19:16;4.83;;;1.60;;
6823;SDS011;58633;49.470;11.004;2023-12-20T11:21:42;2.47;;;1.30;;
6823;SDS011;58633;49.470;11.004;2023-12-20T11:24:07;2.97;;;1.53;;
6823;SDS011;58633;49.470;11.004;2023-12-20T11:26:34;2.80;;;1.33;;
6823;SDS011;58633;49.470;11.004;2023-12-20T11:31:59;4.17;;;1.80;;
6823;SDS011;58633;49.470;11.004;2023-12-20T11:34:31;4.07;;;1.40;;
6823;SDS011;58633;49.470;11.004;2023-12-20T11:36:58;3.43;;;1.43;;
6823;SDS011;58633;49.470;11.004;2023-12-20T11:39:25;4.27;;;1.40;;
6823;SDS011;58633;49.470;11.004;2023-12-20T11:41:53;2.93;;;1.60;;
6823;SDS011;58633;49.470;11.004;2023-12-20T11:44:20;3.33;;;1.37;;
6823;SDS011;58633;49.470;11.004;2023-12-20T11:46:45;3.73;;;1.30;;
6823;SDS011;58633;49.470;11.004;2023-12-20T11:49:11;8.20;;;2.10;;
6823;SDS011;58633;49.470;11.004;2023-12-20T11:51:40;2.63;;;1.43;;
6823;SDS011;58633;49.470;11.004;2023-12-20T11:54:06;5.27;;;1.53;;
6823;SDS011;58633;49.470;11.004;2023-12-20T11:56:32;4.57;;;1.77;;
6823;SDS011;58633;49.470;11.004;2023-12-20T11:58:57;4.40;;;1.70;;
6823;SDS011;58633;49.470;11.004;2023-12-20T12:01:23;5.57;;;1.70;;
6823;SDS011;58633;49.470;11.004;2023-12-20T12:04:01;3.83;;;1.40;;
6823;SDS011;58633;49.470;11.004;2023-12-20T12:06:28;4.43;;;2.03;;
6823;SDS011;58633;49.470;11.004;2023-12-20T12:08:54;5.07;;;1.70;;
6823;SDS011;58633;49.470;11.004;2023-12-20T12:11:20;3.70;;;1.73;;
6823;SDS011;58633;49.470;11.004;2023-12-20T12:13:46;2.87;;;1.80;;
6823;SDS011;58633;49.470;11.004;2023-12-20T12:16:12;2.70;;;1.80;;
6823;SDS011;58633;49.470;11.004;2023-12-20T12:18:38;4.60;;;1.60;;
6823;SDS011;58633;49.470;11.004;2023-12-20T12:21:06;3.60;;;1.90;;
6823;SDS011;58633;49.470;11.004;2023-12-20T12:23:32;3.33;;;1.67;;
6823;SDS011;58633;49.470;11.004;2023-12-20T12:26:06;6.60;;;2.30;;
6823;SDS011;58633;49.470;11.004;2023-12-20T12:28:39;4.23;;;1.93;;
6823;SDS011;58633;49.470;11.004;2023-12-20T12:31:06;3.67;;;2.37;;
6823;SDS011;58633;49.470;11.004;2023-12-20T12:33:32;3.37;;;1.60;;
6823;SDS011;58633;49.470;11.004;2023-12-20T12:35:58;2.43;;;1.30;;
6823;SDS011;58633;49.470;11.004;2023-12-20T12:38:24;4.00;;;1.60;;
6823;SDS011;58633;49.470;11.004;2023-12-20T12:40:50;3.33;;;1.57;;
6823;SDS011;58633;49.470;11.004;2023-12-20T12:43:18;8.60;;;2.00;;
6823;SDS011;58633;49.470;11.004;2023-12-20T12:45:44;6.07;;;1.83;;
6823;SDS011;58633;49.470;11.004;2023-12-20T12:48:10;3.57;;;1.80;;
6823;SDS011;58633;49.470;11.004;2023-12-20T12:50:35;2.33;;;1.50;;
6823;SDS011;58633;49.470;11.004;2023-12-20T12:53:01;3.70;;;1.43;;
6823;SDS011;58633;49.470;11.004;2023-12-20T12:55:27;2.20;;;1.50;;
6823;SDS011;58633;49.470;11.004;2023-12-20T12:57:53;2.63;;;1.63;;
6823;SDS011;58633;49.470;11.004;2023-12-20T13:00:19;2.53;;;1.60;;
6823;SDS011;58633;49.470;11.004;2023-12-20T13:02:44;1.80;;;1.30;;
6823;SDS011;58633;49.470;11.004;2023-12-20T13:05:10;2.47;;;1.50;;
6823;SDS011;58633;49.470;11.004;2023-12-20T13:07:36;2.50;;;1.23;;
6823;SDS011;58633;49.470;11.004;2023-12-20T13:10:02;2.30;;;1.43;;
6823;SDS011;58633;49.470;11.004;2023-12-20T13:12:29;4.37;;;1.73;;
6823;SDS011;58633;49.470;11.004;2023-12-20T13:14:54;2.93;;;1.90;;
6823;SDS011;58633;49.470;11.004;2023-12-20T13:17:20;2.40;;;1.73;;
6823;SDS011;58633;49.470;11.004;2023-12-20T13:19:46;1.50;;;1.40;;
6823;SDS011;58633;49.470;11.004;2023-12-20T13:22:11;2.63;;;1.77;;
6823;SDS011;58633;49.470;11.004;2023-12-20T13:24:37;3.03;;;1.40;;
6823;SDS011;58633;49.470;11.004;2023-12-20T13:27:02;3.37;;;1.50;;
6823;SDS011;58633;49.470;11.004;2023-12-20T13:29:28;2.73;;;1.30;;
6823;SDS011;58633;49.470;11.004;2023-12-20T13:31:54;2.63;;;1.40;;
6823;SDS011;58633;49.470;11.004;2023-12-20T13:34:19;7.50;;;1.80;;
6823;SDS011;58633;49.470;11.004;2023-12-20T13:36:45;4.93;;;1.60;;
6823;SDS011;58633;49.470;11.004;2023-12-20T13:39:12;3.53;;;1.43;;
6823;SDS011;58633;49.470;11.004;2023-12-20T13:41:38;3.23;;;1.20;;
6823;SDS011;58633;49.470;11.004;2023-12-20T13:44:03;3.30;;;1.30;;
6823;SDS011;58633;49.470;11.004;2023-12-20T13:46:29;3.43;;;1.80;;
6823;SDS011;58633;49.470;11.004;2023-12-20T13:48:55;2.63;;;1.43;;
6823;SDS011;58633;49.470;11.004;2023-12-20T13:51:20;2.00;;;1.50;;
6823;SDS011;58633;49.470;11.004;2023-12-20T13:53:46;2.40;;;1.40;;
6823;SDS011;58633;49.470;11.004;2023-12-20T13:56:13;4.00;;;1.77;;
6823;SDS011;58633;49.470;11.004;2023-12-20T13:58:39;2.47;;;1.43;;
6823;SDS011;58633;49.470;11.004;2023-12-20T14:01:06;5.53;;;2.30;;
6823;SDS011;58633;49.470;11.004;2023-12-20T14:03:35;3.47;;;1.83;;
6823;SDS011;58633;49.470;11.004;2023-12-20T14:06:00;3.07;;;1.50;;
6823;SDS011;58633;49.470;11.004;2023-12-20T14:08:26;3.33;;;1.70;;
6823;SDS011;58633;49.470;11.004;2023-12-20T14:10:52;1.53;;;1.43;;
6823;SDS011;58633;49.470;11.004;2023-12-20T14:13:18;1.43;;;1.10;;
6823;SDS011;58633;49.470;11.004;2023-12-20T14:15:43;1.93;;;1.63;;
6823;SDS011;58633;49.470;11.004;2023-12-20T14:18:09;5.93;;;1.47;;
6823;SDS011;58633;49.470;11.004;2023-12-20T14:20:35;4.10;;;1.43;;
6823;SDS011;58633;49.470;11.004;2023-12-20T14:23:03;1.67;;;1.50;;
6823;SDS011;58633;49.470;11.004;2023-12-20T14:25:31;3.67;;;1.60;;
6823;SDS011;58633;49.470;11.004;2023-12-20T14:27:57;4.87;;;2.33;;
6823;SDS011;58633;49.470;11.004;2023-12-20T14:30:22;2.07;;;1.20;;
6823;SDS011;58633;49.470;11.004;2023-12-20T14:32:48;2.73;;;1.60;;
6823;SDS011;58633;49.470;11.004;2023-12-20T14:35:14;1.43;;;1.30;;
6823;SDS011;58633;49.470;11.004;2023-12-20T14:37:39;3.27;;;1.37;;
6823;SDS011;58633;49.470;11.004;2023-12-20T14:40:09;3.60;;;1.67;;
6823;SDS011;58633;49.470;11.004;2023-12-20T14:42:40;3.23;;;1.67;;
6823;SDS011;58633;49.470;11.004;2023-12-20T14:45:06;6.13;;;1.80;;